sensor_id;sensor_type;location;lat;lon;timestamp;P1;durP1;ratioP1;P2;durP2;ratioP2
63046;SDS011;62025;39.238;9.126;2022-07-18T00:00:28;2.30;;;2.13;;
63046;SDS011;62025;39.238;9.126;2022-07-18T00:02:55;2.00;;;1.90;;
63046;SDS011;62025;39.238;9.126;2022-07-18T00:05:21;1.98;;;1.88;;
63046;SDS011;62025;39.238;9.126;2022-07-18T00:07:47;2.00;;;1.90;;
63046;SDS011;62025;39.238;9.126;2022-07-18T00:10:13;2.38;;;2.17;;
63046;SDS011;62025;39.238;9.126;2022-07-18T00:12:40;2.67;;;2.20;;
63046;SDS011;62025;39.238;9.126;2022-07-18T00:15:07;2.30;;;2.10;;
63046;SDS011;62025;39.238;9.126;2022-07-18T00:17:35;4.05;;;2.20;;
63046;SDS011;62025;39.238;9.126;2022-07-18T00:20:06;2.97;;;2.15;;
63046;SDS011;62025;39.238;9.126;2022-07-18T00:22:35;2.30;;;2.10;;
63046;SDS011;62025;39.238;9.126;2022-07-18T00:25:01;2.22;;;2.05;;
63046;SDS011;62025;39.238;9.126;2022-07-18T00:27:28;2.25;;;2.13;;
63046;SDS011;62025;39.238;9.126;2022-07-18T00:29:54;2.45;;;2.25;;
63046;SDS011;62025;39.238;9.126;2022-07-18T00:32:20;2.58;;;2.30;;
63046;SDS011;62025;39.238;9.126;2022-07-18T00:34:47;2.20;;;2.00;;
63046;SDS011;62025;39.238;9.126;2022-07-18T00:37:13;2.60;;;2.40;;
63046;SDS011;62025;39.238;9.126;2022-07-18T00:39:39;4.43;;;2.60;;
63046;SDS011;62025;39.238;9.126;2022-07-18T00:42:05;5.38;;;2.60;;
63046;SDS011;62025;39.238;9.126;2022-07-18T00:44:31;3.63;;;2.50;;
63046;SDS011;62025;39.238;9.126;2022-07-18T00:46:58;2.60;;;2.40;;
63046;SDS011;62025;39.238;9.126;2022-07-18T00:49:26;2.95;;;2.45;;
63046;SDS011;62025;39.238;9.126;2022-07-18T00:51:53;5.17;;;2.57;;
63046;SDS011;62025;39.238;9.126;2022-07-18T00:54:20;5.13;;;2.47;;
63046;SDS011;62025;39.238;9.126;2022-07-18T00:56:47;3.35;;;2.53;;
63046;SDS011;62025;39.238;9.126;2022-07-18T00:59:14;2.63;;;2.42;;
63046;SDS011;62025;39.238;9.126;2022-07-18T01:01:41;2.53;;;2.30;;
63046;SDS011;62025;39.238;9.126;2022-07-18T01:04:19;3.30;;;2.70;;
63046;SDS011;62025;39.238;9.126;2022-07-18T01:06:48;4.32;;;2.50;;
63046;SDS011;62025;39.238;9.126;2022-07-18T01:09:16;3.30;;;2.47;;
63046;SDS011;62025;39.238;9.126;2022-07-18T01:11:45;6.68;;;2.38;;
63046;SDS011;62025;39.238;9.126;2022-07-18T01:14:15;4.35;;;2.30;;
63046;SDS011;62025;39.238;9.126;2022-07-18T01:16:41;2.58;;;2.33;;
63046;SDS011;62025;39.238;9.126;2022-07-18T01:19:08;3.13;;;2.72;;
63046;SDS011;62025;39.238;9.126;2022-07-18T01:21:35;4.80;;;2.30;;
63046;SDS011;62025;39.238;9.126;2022-07-18T01:24:03;3.38;;;2.40;;
63046;SDS011;62025;39.238;9.126;2022-07-18T01:26:29;2.70;;;2.50;;
63046;SDS011;62025;39.238;9.126;2022-07-18T01:28:55;2.60;;;2.40;;
63046;SDS011;62025;39.238;9.126;2022-07-18T01:31:21;4.20;;;2.53;;
63046;SDS011;62025;39.238;9.126;2022-07-18T01:33:48;2.60;;;2.35;;
63046;SDS011;62025;39.238;9.126;2022-07-18T01:36:14;2.75;;;2.50;;
63046;SDS011;62025;39.238;9.126;2022-07-18T01:38:40;3.85;;;2.60;;
63046;SDS011;62025;39.238;9.126;2022-07-18T01:41:06;4.60;;;2.60;;
63046;SDS011;62025;39.238;9.126;2022-07-18T01:43:32;4.35;;;2.55;;
63046;SDS011;62025;39.238;9.126;2022-07-18T01:45:59;4.35;;;2.55;;
63046;SDS011;62025;39.238;9.126;2022-07-18T01:48:26;4.47;;;2.40;;
63046;SDS011;62025;39.238;9.126;2022-07-18T01:50:53;2.72;;;2.50;;
63046;SDS011;62025;39.238;9.126;2022-07-18T01:53:19;4.05;;;2.70;;
63046;SDS011;62025;39.238;9.126;2022-07-18T01:55:46;3.20;;;2.47;;
63046;SDS011;62025;39.238;9.126;2022-07-18T01:58:13;3.08;;;2.60;;
63046;SDS011;62025;39.238;9.126;2022-07-18T02:00:42;2.70;;;2.40;;
63046;SDS011;62025;39.238;9.126;2022-07-18T02:03:08;2.50;;;2.30;;
63046;SDS011;62025;39.238;9.126;2022-07-18T02:05:45;4.95;;;2.50;;
63046;SDS011;62025;39.238;9.126;2022-07-18T02:08:11;2.83;;;2.20;;
63046;SDS011;62025;39.238;9.126;2022-07-18T02:10:40;4.95;;;2.35;;
63046;SDS011;62025;39.238;9.126;2022-07-18T02:13:07;3.83;;;2.42;;
63046;SDS011;62025;39.238;9.126;2022-07-18T02:15:33;2.40;;;2.20;;
63046;SDS011;62025;39.238;9.126;2022-07-18T02:18:00;3.50;;;2.35;;
63046;SDS011;62025;39.238;9.126;2022-07-18T02:20:26;2.60;;;2.40;;
63046;SDS011;62025;39.238;9.126;2022-07-18T02:22:53;2.63;;;2.42;;
63046;SDS011;62025;39.238;9.126;2022-07-18T02:25:19;3.75;;;2.47;;
63046;SDS011;62025;39.238;9.126;2022-07-18T02:27:46;3.88;;;2.55;;
63046;SDS011;62025;39.238;9.126;2022-07-18T02:30:13;2.72;;;2.53;;
63046;SDS011;62025;39.238;9.126;2022-07-18T02:32:40;7.60;;;2.67;;
63046;SDS011;62025;39.238;9.126;2022-07-18T02:35:07;2.78;;;2.53;;
63046;SDS011;62025;39.238;9.126;2022-07-18T02:37:37;2.70;;;2.50;;
63046;SDS011;62025;39.238;9.126;2022-07-18T02:40:10;3.63;;;2.42;;
63046;SDS011;62025;39.238;9.126;2022-07-18T02:42:37;2.70;;;2.50;;
63046;SDS011;62025;39.238;9.126;2022-07-18T02:45:04;3.00;;;2.30;;
63046;SDS011;62025;39.238;9.126;2022-07-18T02:47:32;2.70;;;2.50;;
63046;SDS011;62025;39.238;9.126;2022-07-18T02:49:59;3.75;;;2.47;;
63046;SDS011;62025;39.238;9.126;2022-07-18T02:52:28;3.47;;;2.70;;
63046;SDS011;62025;39.238;9.126;2022-07-18T02:54:54;2.90;;;2.70;;
63046;SDS011;62025;39.238;9.126;2022-07-18T02:57:22;3.10;;;2.80;;
63046;SDS011;62025;39.238;9.126;2022-07-18T02:59:48;3.38;;;2.50;;
63046;SDS011;62025;39.238;9.126;2022-07-18T03:02:15;4.80;;;2.65;;
63046;SDS011;62025;39.238;9.126;2022-07-18T03:04:41;3.58;;;2.58;;
63046;SDS011;62025;39.238;9.126;2022-07-18T03:07:07;3.72;;;2.50;;
63046;SDS011;62025;39.238;9.126;2022-07-18T03:09:33;5.13;;;2.72;;
63046;SDS011;62025;39.238;9.126;2022-07-18T03:12:00;3.55;;;3.25;;
63046;SDS011;62025;39.238;9.126;2022-07-18T03:14:26;3.95;;;3.42;;
63046;SDS011;62025;39.238;9.126;2022-07-18T03:16:52;4.40;;;3.17;;
63046;SDS011;62025;39.238;9.126;2022-07-18T03:19:18;8.20;;;3.78;;
63046;SDS011;62025;39.238;9.126;2022-07-18T03:21:45;4.77;;;3.93;;
63046;SDS011;62025;39.238;9.126;2022-07-18T03:24:12;4.90;;;3.95;;
63046;SDS011;62025;39.238;9.126;2022-07-18T03:26:41;5.43;;;3.92;;
63046;SDS011;62025;39.238;9.126;2022-07-18T03:29:08;4.22;;;3.60;;
63046;SDS011;62025;39.238;9.126;2022-07-18T03:31:35;4.93;;;3.63;;
63046;SDS011;62025;39.238;9.126;2022-07-18T03:34:01;4.45;;;3.50;;
63046;SDS011;62025;39.238;9.126;2022-07-18T03:36:28;4.13;;;3.72;;
63046;SDS011;62025;39.238;9.126;2022-07-18T03:38:54;3.97;;;3.60;;
63046;SDS011;62025;39.238;9.126;2022-07-18T03:41:20;5.32;;;4.00;;
63046;SDS011;62025;39.238;9.126;2022-07-18T03:43:46;4.20;;;3.53;;
63046;SDS011;62025;39.238;9.126;2022-07-18T03:46:13;6.38;;;3.53;;
63046;SDS011;62025;39.238;9.126;2022-07-18T03:48:39;7.38;;;3.30;;
63046;SDS011;62025;39.238;9.126;2022-07-18T03:51:05;4.47;;;3.47;;
63046;SDS011;62025;39.238;9.126;2022-07-18T03:53:31;5.85;;;3.58;;
63046;SDS011;62025;39.238;9.126;2022-07-18T03:55:58;5.43;;;3.55;;
63046;SDS011;62025;39.238;9.126;2022-07-18T03:58:24;4.13;;;3.40;;
63046;SDS011;62025;39.238;9.126;2022-07-18T04:00:51;7.65;;;3.55;;
63046;SDS011;62025;39.238;9.126;2022-07-18T04:03:17;3.78;;;3.38;;
63046;SDS011;62025;39.238;9.126;2022-07-18T04:05:43;5.63;;;3.30;;
63046;SDS011;62025;39.238;9.126;2022-07-18T04:08:10;6.75;;;3.30;;
63046;SDS011;62025;39.238;9.126;2022-07-18T04:10:36;6.18;;;3.35;;
63046;SDS011;62025;39.238;9.126;2022-07-18T04:13:05;4.93;;;3.70;;
63046;SDS011;62025;39.238;9.126;2022-07-18T04:15:32;4.18;;;3.53;;
63046;SDS011;62025;39.238;9.126;2022-07-18T04:17:59;4.10;;;3.70;;
63046;SDS011;62025;39.238;9.126;2022-07-18T04:20:25;4.55;;;3.50;;
63046;SDS011;62025;39.238;9.126;2022-07-18T04:22:53;4.22;;;3.83;;
63046;SDS011;62025;39.238;9.126;2022-07-18T04:25:22;5.20;;;3.90;;
63046;SDS011;62025;39.238;9.126;2022-07-18T04:27:54;6.00;;;4.10;;
63046;SDS011;62025;39.238;9.126;2022-07-18T04:30:23;4.10;;;3.70;;
63046;SDS011;62025;39.238;9.126;2022-07-18T04:32:51;3.85;;;3.33;;
63046;SDS011;62025;39.238;9.126;2022-07-18T04:35:20;3.95;;;3.47;;
63046;SDS011;62025;39.238;9.126;2022-07-18T04:37:47;4.65;;;4.18;;
63046;SDS011;62025;39.238;9.126;2022-07-18T04:40:14;5.20;;;4.27;;
63046;SDS011;62025;39.238;9.126;2022-07-18T04:42:41;4.60;;;4.00;;
63046;SDS011;62025;39.238;9.126;2022-07-18T04:45:08;4.45;;;3.90;;
63046;SDS011;62025;39.238;9.126;2022-07-18T04:47:35;5.70;;;3.40;;
63046;SDS011;62025;39.238;9.126;2022-07-18T04:50:01;5.65;;;3.75;;
63046;SDS011;62025;39.238;9.126;2022-07-18T04:52:35;5.63;;;3.90;;
63046;SDS011;62025;39.238;9.126;2022-07-18T04:55:05;6.03;;;3.72;;
63046;SDS011;62025;39.238;9.126;2022-07-18T04:57:34;3.70;;;3.40;;
63046;SDS011;62025;39.238;9.126;2022-07-18T05:00:04;4.43;;;3.55;;
63046;SDS011;62025;39.238;9.126;2022-07-18T05:02:34;3.90;;;3.50;;
63046;SDS011;62025;39.238;9.126;2022-07-18T05:05:00;6.13;;;3.80;;
63046;SDS011;62025;39.238;9.126;2022-07-18T05:07:26;5.13;;;4.43;;
63046;SDS011;62025;39.238;9.126;2022-07-18T05:09:52;4.00;;;3.60;;
63046;SDS011;62025;39.238;9.126;2022-07-18T05:12:18;9.45;;;3.80;;
63046;SDS011;62025;39.238;9.126;2022-07-18T05:14:49;5.22;;;3.42;;
63046;SDS011;62025;39.238;9.126;2022-07-18T05:17:16;4.03;;;3.50;;
63046;SDS011;62025;39.238;9.126;2022-07-18T05:19:42;3.83;;;3.42;;
63046;SDS011;62025;39.238;9.126;2022-07-18T05:22:08;4.80;;;3.50;;
63046;SDS011;62025;39.238;9.126;2022-07-18T05:24:34;4.18;;;3.55;;
63046;SDS011;62025;39.238;9.126;2022-07-18T05:27:00;5.15;;;3.70;;
63046;SDS011;62025;39.238;9.126;2022-07-18T05:29:27;4.00;;;3.60;;
63046;SDS011;62025;39.238;9.126;2022-07-18T05:31:53;3.88;;;3.47;;
63046;SDS011;62025;39.238;9.126;2022-07-18T05:34:19;5.22;;;3.40;;
63046;SDS011;62025;39.238;9.126;2022-07-18T05:36:45;5.00;;;3.20;;
63046;SDS011;62025;39.238;9.126;2022-07-18T05:39:11;3.40;;;3.10;;
63046;SDS011;62025;39.238;9.126;2022-07-18T05:41:37;4.28;;;2.90;;
63046;SDS011;62025;39.238;9.126;2022-07-18T05:44:03;4.03;;;2.80;;
63046;SDS011;62025;39.238;9.126;2022-07-18T05:46:30;4.30;;;3.00;;
63046;SDS011;62025;39.238;9.126;2022-07-18T05:48:56;3.40;;;2.42;;
63046;SDS011;62025;39.238;9.126;2022-07-18T05:51:22;3.25;;;2.70;;
63046;SDS011;62025;39.238;9.126;2022-07-18T05:53:48;2.97;;;2.67;;
63046;SDS011;62025;39.238;9.126;2022-07-18T05:56:14;3.58;;;2.80;;
63046;SDS011;62025;39.238;9.126;2022-07-18T05:58:41;3.47;;;2.53;;
63046;SDS011;62025;39.238;9.126;2022-07-18T06:01:07;3.45;;;2.67;;
63046;SDS011;62025;39.238;9.126;2022-07-18T06:03:33;3.00;;;2.70;;
63046;SDS011;62025;39.238;9.126;2022-07-18T06:05:59;2.65;;;2.40;;
63046;SDS011;62025;39.238;9.126;2022-07-18T06:08:25;2.58;;;2.40;;
63046;SDS011;62025;39.238;9.126;2022-07-18T06:10:51;4.20;;;2.70;;
63046;SDS011;62025;39.238;9.126;2022-07-18T06:13:17;3.20;;;2.45;;
63046;SDS011;62025;39.238;9.126;2022-07-18T06:15:43;2.75;;;2.55;;
63046;SDS011;62025;39.238;9.126;2022-07-18T06:18:09;3.65;;;2.58;;
63046;SDS011;62025;39.238;9.126;2022-07-18T06:20:35;2.70;;;2.50;;
63046;SDS011;62025;39.238;9.126;2022-07-18T06:23:02;3.45;;;2.55;;
63046;SDS011;62025;39.238;9.126;2022-07-18T06:25:28;2.63;;;2.40;;
63046;SDS011;62025;39.238;9.126;2022-07-18T06:27:54;3.33;;;2.63;;
63046;SDS011;62025;39.238;9.126;2022-07-18T06:30:20;4.38;;;2.50;;
63046;SDS011;62025;39.238;9.126;2022-07-18T06:32:48;3.53;;;2.70;;
63046;SDS011;62025;39.238;9.126;2022-07-18T06:35:14;4.25;;;2.60;;
63046;SDS011;62025;39.238;9.126;2022-07-18T06:37:40;3.08;;;2.67;;
63046;SDS011;62025;39.238;9.126;2022-07-18T06:40:06;2.45;;;2.25;;
63046;SDS011;62025;39.238;9.126;2022-07-18T06:42:33;2.83;;;2.50;;
63046;SDS011;62025;39.238;9.126;2022-07-18T06:44:59;2.60;;;2.40;;
63046;SDS011;62025;39.238;9.126;2022-07-18T06:47:25;3.00;;;2.40;;
63046;SDS011;62025;39.238;9.126;2022-07-18T06:49:52;3.22;;;2.22;;
63046;SDS011;62025;39.238;9.126;2022-07-18T06:52:18;4.07;;;2.60;;
63046;SDS011;62025;39.238;9.126;2022-07-18T06:54:44;2.63;;;2.42;;
63046;SDS011;62025;39.238;9.126;2022-07-18T06:57:10;2.75;;;2.50;;
63046;SDS011;62025;39.238;9.126;2022-07-18T06:59:36;2.70;;;2.50;;
63046;SDS011;62025;39.238;9.126;2022-07-18T07:02:02;3.13;;;2.38;;
63046;SDS011;62025;39.238;9.126;2022-07-18T07:04:29;3.57;;;2.70;;
63046;SDS011;62025;39.238;9.126;2022-07-18T07:06:55;2.70;;;2.50;;
63046;SDS011;62025;39.238;9.126;2022-07-18T07:09:22;12.90;;;2.47;;
63046;SDS011;62025;39.238;9.126;2022-07-18T07:11:48;2.92;;;2.47;;
63046;SDS011;62025;39.238;9.126;2022-07-18T07:14:14;2.75;;;2.40;;
63046;SDS011;62025;39.238;9.126;2022-07-18T07:16:40;7.60;;;2.60;;
63046;SDS011;62025;39.238;9.126;2022-07-18T07:19:06;2.35;;;2.17;;
63046;SDS011;62025;39.238;9.126;2022-07-18T07:21:32;2.75;;;2.40;;
63046;SDS011;62025;39.238;9.126;2022-07-18T07:23:58;2.83;;;2.63;;
63046;SDS011;62025;39.238;9.126;2022-07-18T07:26:24;2.67;;;2.40;;
63046;SDS011;62025;39.238;9.126;2022-07-18T07:28:50;2.50;;;2.30;;
63046;SDS011;62025;39.238;9.126;2022-07-18T07:31:16;2.75;;;2.55;;
63046;SDS011;62025;39.238;9.126;2022-07-18T07:33:42;3.53;;;2.30;;
63046;SDS011;62025;39.238;9.126;2022-07-18T07:36:09;2.25;;;2.10;;
63046;SDS011;62025;39.238;9.126;2022-07-18T07:38:36;2.83;;;2.50;;
63046;SDS011;62025;39.238;9.126;2022-07-18T07:41:03;2.60;;;2.40;;
63046;SDS011;62025;39.238;9.126;2022-07-18T07:43:29;2.75;;;2.45;;
63046;SDS011;62025;39.238;9.126;2022-07-18T07:45:55;4.25;;;2.58;;
63046;SDS011;62025;39.238;9.126;2022-07-18T07:48:21;3.90;;;2.40;;
63046;SDS011;62025;39.238;9.126;2022-07-18T07:50:48;2.50;;;2.30;;
63046;SDS011;62025;39.238;9.126;2022-07-18T07:53:16;2.50;;;2.30;;
63046;SDS011;62025;39.238;9.126;2022-07-18T07:55:42;2.30;;;2.10;;
63046;SDS011;62025;39.238;9.126;2022-07-18T07:58:08;2.33;;;2.13;;
63046;SDS011;62025;39.238;9.126;2022-07-18T08:00:34;2.55;;;2.20;;
63046;SDS011;62025;39.238;9.126;2022-07-18T08:03:02;2.72;;;2.30;;
63046;SDS011;62025;39.238;9.126;2022-07-18T08:05:32;5.07;;;2.20;;
63046;SDS011;62025;39.238;9.126;2022-07-18T08:08:09;2.55;;;2.35;;
63046;SDS011;62025;39.238;9.126;2022-07-18T08:10:36;2.75;;;2.25;;
63046;SDS011;62025;39.238;9.126;2022-07-18T08:13:02;3.60;;;2.35;;
63046;SDS011;62025;39.238;9.126;2022-07-18T08:15:28;2.30;;;2.20;;
63046;SDS011;62025;39.238;9.126;2022-07-18T08:17:54;4.22;;;2.17;;
63046;SDS011;62025;39.238;9.126;2022-07-18T08:20:21;4.13;;;2.38;;
63046;SDS011;62025;39.238;9.126;2022-07-18T08:23:00;4.57;;;2.65;;
63046;SDS011;62025;39.238;9.126;2022-07-18T08:25:34;5.05;;;2.30;;
63046;SDS011;62025;39.238;9.126;2022-07-18T08:28:03;4.03;;;2.10;;
63046;SDS011;62025;39.238;9.126;2022-07-18T08:30:31;5.88;;;2.40;;
63046;SDS011;62025;39.238;9.126;2022-07-18T08:32:58;2.95;;;2.20;;
63046;SDS011;62025;39.238;9.126;2022-07-18T08:35:26;4.30;;;2.42;;
63046;SDS011;62025;39.238;9.126;2022-07-18T08:37:54;2.60;;;2.10;;
63046;SDS011;62025;39.238;9.126;2022-07-18T08:40:20;2.60;;;2.40;;
63046;SDS011;62025;39.238;9.126;2022-07-18T08:42:48;3.17;;;2.40;;
63046;SDS011;62025;39.238;9.126;2022-07-18T08:45:19;2.95;;;2.38;;
63046;SDS011;62025;39.238;9.126;2022-07-18T08:47:50;2.50;;;2.30;;
63046;SDS011;62025;39.238;9.126;2022-07-18T08:50:17;4.28;;;2.40;;
63046;SDS011;62025;39.238;9.126;2022-07-18T08:52:44;2.50;;;2.30;;
63046;SDS011;62025;39.238;9.126;2022-07-18T08:55:11;6.20;;;2.40;;
63046;SDS011;62025;39.238;9.126;2022-07-18T08:57:37;2.60;;;2.40;;
63046;SDS011;62025;39.238;9.126;2022-07-18T09:00:04;4.22;;;2.65;;
63046;SDS011;62025;39.238;9.126;2022-07-18T09:02:35;5.32;;;2.33;;
63046;SDS011;62025;39.238;9.126;2022-07-18T09:05:02;2.60;;;2.40;;
63046;SDS011;62025;39.238;9.126;2022-07-18T09:07:31;2.65;;;2.20;;
63046;SDS011;62025;39.238;9.126;2022-07-18T09:10:03;3.97;;;2.33;;
63046;SDS011;62025;39.238;9.126;2022-07-18T09:12:31;2.78;;;2.50;;
63046;SDS011;62025;39.238;9.126;2022-07-18T09:14:58;6.75;;;2.30;;
63046;SDS011;62025;39.238;9.126;2022-07-18T09:17:34;3.13;;;2.47;;
63046;SDS011;62025;39.238;9.126;2022-07-18T09:22:45;2.80;;;2.30;;
63046;SDS011;62025;39.238;9.126;2022-07-18T09:27:42;4.32;;;2.40;;
63046;SDS011;62025;39.238;9.126;2022-07-18T09:35:29;2.40;;;2.20;;
63046;SDS011;62025;39.238;9.126;2022-07-18T09:40:46;5.40;;;2.40;;
63046;SDS011;62025;39.238;9.126;2022-07-18T09:43:20;2.60;;;2.40;;
63046;SDS011;62025;39.238;9.126;2022-07-18T09:45:50;2.83;;;2.40;;
63046;SDS011;62025;39.238;9.126;2022-07-18T09:48:22;3.53;;;2.20;;
63046;SDS011;62025;39.238;9.126;2022-07-18T09:50:57;3.70;;;2.20;;
63046;SDS011;62025;39.238;9.126;2022-07-18T09:53:32;2.45;;;2.25;;
63046;SDS011;62025;39.238;9.126;2022-07-18T09:56:12;4.05;;;2.60;;
63046;SDS011;62025;39.238;9.126;2022-07-18T09:58:50;2.38;;;2.15;;
63046;SDS011;62025;39.238;9.126;2022-07-18T10:01:18;3.00;;;2.00;;
63046;SDS011;62025;39.238;9.126;2022-07-18T10:03:44;2.42;;;2.22;;
63046;SDS011;62025;39.238;9.126;2022-07-18T10:06:11;2.35;;;2.00;;
63046;SDS011;62025;39.238;9.126;2022-07-18T10:08:38;2.40;;;2.20;;
63046;SDS011;62025;39.238;9.126;2022-07-18T10:11:05;2.40;;;2.20;;
63046;SDS011;62025;39.238;9.126;2022-07-18T10:13:32;3.33;;;3.00;;
63046;SDS011;62025;39.238;9.126;2022-07-18T10:16:00;2.40;;;2.20;;
63046;SDS011;62025;39.238;9.126;2022-07-18T10:18:31;2.20;;;2.00;;
63046;SDS011;62025;39.238;9.126;2022-07-18T10:23:34;3.85;;;2.03;;
63046;SDS011;62025;39.238;9.126;2022-07-18T10:31:21;2.83;;;2.17;;
63046;SDS011;62025;39.238;9.126;2022-07-18T10:33:52;3.08;;;2.38;;
63046;SDS011;62025;39.238;9.126;2022-07-18T10:36:21;3.78;;;2.10;;
63046;SDS011;62025;39.238;9.126;2022-07-18T10:39:05;5.13;;;2.20;;
63046;SDS011;62025;39.238;9.126;2022-07-18T10:52:58;2.80;;;2.30;;
63046;SDS011;62025;39.238;9.126;2022-07-18T11:00:15;2.45;;;2.25;;
63046;SDS011;62025;39.238;9.126;2022-07-18T11:21:15;4.35;;;2.20;;
63046;SDS011;62025;39.238;9.126;2022-07-18T11:23:44;5.15;;;2.20;;
63046;SDS011;62025;39.238;9.126;2022-07-18T11:26:16;2.30;;;2.10;;
63046;SDS011;62025;39.238;9.126;2022-07-18T11:28:47;4.57;;;2.40;;
63046;SDS011;62025;39.238;9.126;2022-07-18T11:31:21;5.18;;;2.28;;
63046;SDS011;62025;39.238;9.126;2022-07-18T11:33:48;5.20;;;2.30;;
63046;SDS011;62025;39.238;9.126;2022-07-18T11:36:16;2.33;;;2.10;;
63046;SDS011;62025;39.238;9.126;2022-07-18T11:38:48;3.10;;;2.00;;
63046;SDS011;62025;39.238;9.126;2022-07-18T11:41:23;2.75;;;1.98;;
63046;SDS011;62025;39.238;9.126;2022-07-18T11:43:51;2.25;;;1.95;;
63046;SDS011;62025;39.238;9.126;2022-07-18T11:46:20;3.17;;;2.42;;
63046;SDS011;62025;39.238;9.126;2022-07-18T11:48:48;2.22;;;2.00;;
63046;SDS011;62025;39.238;9.126;2022-07-18T11:51:37;2.22;;;2.03;;
63046;SDS011;62025;39.238;9.126;2022-07-18T11:54:06;2.30;;;2.10;;
63046;SDS011;62025;39.238;9.126;2022-07-18T11:56:33;2.63;;;2.30;;
63046;SDS011;62025;39.238;9.126;2022-07-18T11:59:15;2.90;;;2.10;;
63046;SDS011;62025;39.238;9.126;2022-07-18T12:01:42;4.47;;;2.15;;
63046;SDS011;62025;39.238;9.126;2022-07-18T12:04:18;2.00;;;1.90;;
63046;SDS011;62025;39.238;9.126;2022-07-18T12:09:51;4.60;;;2.40;;
63046;SDS011;62025;39.238;9.126;2022-07-18T12:12:19;2.42;;;2.10;;
63046;SDS011;62025;39.238;9.126;2022-07-18T12:14:54;2.30;;;2.10;;
63046;SDS011;62025;39.238;9.126;2022-07-18T12:17:25;4.70;;;2.00;;
63046;SDS011;62025;39.238;9.126;2022-07-18T12:19:59;2.30;;;2.10;;
63046;SDS011;62025;39.238;9.126;2022-07-18T12:23:05;2.65;;;2.05;;
63046;SDS011;62025;39.238;9.126;2022-07-18T12:25:38;3.40;;;2.00;;
63046;SDS011;62025;39.238;9.126;2022-07-18T12:28:12;2.20;;;2.00;;
63046;SDS011;62025;39.238;9.126;2022-07-18T12:30:42;5.85;;;1.95;;
63046;SDS011;62025;39.238;9.126;2022-07-18T12:33:10;5.88;;;2.20;;
63046;SDS011;62025;39.238;9.126;2022-07-18T12:35:37;2.03;;;1.73;;
63046;SDS011;62025;39.238;9.126;2022-07-18T12:38:13;2.00;;;1.80;;
63046;SDS011;62025;39.238;9.126;2022-07-18T12:40:51;4.50;;;1.73;;
63046;SDS011;62025;39.238;9.126;2022-07-18T12:45:54;4.03;;;1.90;;
63046;SDS011;62025;39.238;9.126;2022-07-18T12:48:22;3.05;;;2.00;;
63046;SDS011;62025;39.238;9.126;2022-07-18T12:50:56;6.15;;;2.40;;
63046;SDS011;62025;39.238;9.126;2022-07-18T12:53:26;2.10;;;1.90;;
63046;SDS011;62025;39.238;9.126;2022-07-18T12:55:54;2.28;;;1.90;;
63046;SDS011;62025;39.238;9.126;2022-07-18T12:58:21;5.75;;;2.17;;
63046;SDS011;62025;39.238;9.126;2022-07-18T13:00:47;2.25;;;1.80;;
63046;SDS011;62025;39.238;9.126;2022-07-18T13:03:14;2.50;;;1.90;;
63046;SDS011;62025;39.238;9.126;2022-07-18T13:05:41;2.10;;;1.85;;
63046;SDS011;62025;39.238;9.126;2022-07-18T13:08:08;3.67;;;2.00;;
63046;SDS011;62025;39.238;9.126;2022-07-18T13:10:36;2.47;;;2.00;;
63046;SDS011;62025;39.238;9.126;2022-07-18T13:13:04;2.75;;;1.80;;
63046;SDS011;62025;39.238;9.126;2022-07-18T13:15:32;4.20;;;2.10;;
63046;SDS011;62025;39.238;9.126;2022-07-18T13:17:59;2.33;;;1.63;;
63046;SDS011;62025;39.238;9.126;2022-07-18T13:20:25;3.17;;;1.88;;
63046;SDS011;62025;39.238;9.126;2022-07-18T13:22:51;2.45;;;1.90;;
63046;SDS011;62025;39.238;9.126;2022-07-18T13:25:18;2.13;;;1.70;;
63046;SDS011;62025;39.238;9.126;2022-07-18T13:27:47;3.33;;;1.90;;
63046;SDS011;62025;39.238;9.126;2022-07-18T13:30:14;3.15;;;1.70;;
63046;SDS011;62025;39.238;9.126;2022-07-18T13:32:40;3.47;;;1.75;;
63046;SDS011;62025;39.238;9.126;2022-07-18T13:35:10;6.22;;;2.00;;
63046;SDS011;62025;39.238;9.126;2022-07-18T13:37:37;2.33;;;1.80;;
63046;SDS011;62025;39.238;9.126;2022-07-18T13:40:03;2.95;;;1.90;;
63046;SDS011;62025;39.238;9.126;2022-07-18T13:42:31;6.05;;;1.80;;
63046;SDS011;62025;39.238;9.126;2022-07-18T13:44:58;1.80;;;1.70;;
63046;SDS011;62025;39.238;9.126;2022-07-18T13:47:24;3.13;;;1.75;;
63046;SDS011;62025;39.238;9.126;2022-07-18T13:49:50;6.97;;;2.00;;
63046;SDS011;62025;39.238;9.126;2022-07-18T13:52:17;2.13;;;1.80;;
63046;SDS011;62025;39.238;9.126;2022-07-18T13:54:43;3.80;;;1.70;;
63046;SDS011;62025;39.238;9.126;2022-07-18T13:57:09;2.00;;;1.77;;
63046;SDS011;62025;39.238;9.126;2022-07-18T13:59:36;3.58;;;2.03;;
63046;SDS011;62025;39.238;9.126;2022-07-18T14:02:06;4.00;;;1.70;;
63046;SDS011;62025;39.238;9.126;2022-07-18T14:04:33;6.03;;;1.80;;
63046;SDS011;62025;39.238;9.126;2022-07-18T14:07:00;3.00;;;1.85;;
63046;SDS011;62025;39.238;9.126;2022-07-18T14:09:27;5.83;;;1.90;;
63046;SDS011;62025;39.238;9.126;2022-07-18T14:11:56;5.30;;;1.80;;
63046;SDS011;62025;39.238;9.126;2022-07-18T14:14:23;3.40;;;1.85;;
63046;SDS011;62025;39.238;9.126;2022-07-18T14:16:50;3.30;;;2.10;;
63046;SDS011;62025;39.238;9.126;2022-07-18T14:19:19;3.53;;;1.70;;
63046;SDS011;62025;39.238;9.126;2022-07-18T14:21:46;2.35;;;1.70;;
63046;SDS011;62025;39.238;9.126;2022-07-18T14:24:14;2.15;;;1.85;;
63046;SDS011;62025;39.238;9.126;2022-07-18T14:26:42;2.00;;;1.77;;
63046;SDS011;62025;39.238;9.126;2022-07-18T14:29:09;2.03;;;1.83;;
63046;SDS011;62025;39.238;9.126;2022-07-18T14:31:37;4.28;;;1.90;;
63046;SDS011;62025;39.238;9.126;2022-07-18T14:34:04;4.07;;;1.83;;
63046;SDS011;62025;39.238;9.126;2022-07-18T14:36:31;2.50;;;1.83;;
63046;SDS011;62025;39.238;9.126;2022-07-18T14:38:58;3.35;;;1.95;;
63046;SDS011;62025;39.238;9.126;2022-07-18T14:41:25;2.13;;;1.88;;
63046;SDS011;62025;39.238;9.126;2022-07-18T14:43:52;2.90;;;1.80;;
63046;SDS011;62025;39.238;9.126;2022-07-18T14:46:19;2.10;;;1.90;;
63046;SDS011;62025;39.238;9.126;2022-07-18T14:48:47;3.97;;;2.03;;
63046;SDS011;62025;39.238;9.126;2022-07-18T14:51:17;2.63;;;1.98;;
63046;SDS011;62025;39.238;9.126;2022-07-18T14:53:46;3.28;;;1.95;;
63046;SDS011;62025;39.238;9.126;2022-07-18T14:56:13;3.97;;;1.90;;
63046;SDS011;62025;39.238;9.126;2022-07-18T14:58:40;2.70;;;1.92;;
63046;SDS011;62025;39.238;9.126;2022-07-18T15:01:07;2.50;;;2.28;;
63046;SDS011;62025;39.238;9.126;2022-07-18T15:03:34;3.05;;;2.10;;
63046;SDS011;62025;39.238;9.126;2022-07-18T15:06:01;2.97;;;1.95;;
63046;SDS011;62025;39.238;9.126;2022-07-18T15:08:28;5.38;;;2.00;;
63046;SDS011;62025;39.238;9.126;2022-07-18T15:13:22;4.70;;;2.08;;
63046;SDS011;62025;39.238;9.126;2022-07-18T15:15:48;4.70;;;2.05;;
63046;SDS011;62025;39.238;9.126;2022-07-18T15:18:16;5.57;;;2.15;;
63046;SDS011;62025;39.238;9.126;2022-07-18T15:20:42;5.53;;;2.30;;
63046;SDS011;62025;39.238;9.126;2022-07-18T15:23:08;3.00;;;2.00;;
63046;SDS011;62025;39.238;9.126;2022-07-18T15:25:34;2.60;;;1.92;;
63046;SDS011;62025;39.238;9.126;2022-07-18T15:28:00;4.15;;;2.00;;
63046;SDS011;62025;39.238;9.126;2022-07-18T15:30:27;2.70;;;2.10;;
63046;SDS011;62025;39.238;9.126;2022-07-18T15:32:53;2.03;;;1.83;;
63046;SDS011;62025;39.238;9.126;2022-07-18T15:35:19;2.70;;;2.08;;
63046;SDS011;62025;39.238;9.126;2022-07-18T15:37:45;4.45;;;2.20;;
63046;SDS011;62025;39.238;9.126;2022-07-18T15:40:11;4.00;;;2.30;;
63046;SDS011;62025;39.238;9.126;2022-07-18T15:42:37;2.10;;;1.90;;
63046;SDS011;62025;39.238;9.126;2022-07-18T15:45:03;2.03;;;1.83;;
63046;SDS011;62025;39.238;9.126;2022-07-18T15:47:30;3.10;;;1.77;;
63046;SDS011;62025;39.238;9.126;2022-07-18T15:49:56;4.60;;;2.10;;
63046;SDS011;62025;39.238;9.126;2022-07-18T15:52:22;10.55;;;2.00;;
63046;SDS011;62025;39.238;9.126;2022-07-18T15:54:48;2.70;;;1.95;;